Georgtown Station, New York
Current Conditions -  °F | °C
As of 5:53 AM on Wednesday 26 Nov 2014 (Local Time) from KRME Reporting Station
Overcast Overcast  
Wind Chill:   Ceiling: 3100
Heat Index:   Visibility: 10mi
Dew Point: -3°   Wind: 0mph
Humidity: 72%   Direction: NA
Pressure: 30.21"   Gusts: NA
Location:  42.8314°N, 75.6471°W
Report Text: KRME 261053Z AUTO 00000KT 10SM OVC031 02/M03 A3021 RMK AO2 SLP234 T00171028
Loading
Personal Weather Stations






























Interactive Weather Map New forecast layout! Learn more

10-Day Weather Forecast

Advertisements
Track Severe Weather on mobile